sensor_id;sensor_type;location;lat;lon;timestamp;temperature;humidity
7502;DHT22;3792;47.740;7.606;2023-05-07T08:10:48;19.40;99.90
7502;DHT22;3792;47.740;7.606;2023-05-07T08:13:17;19.50;99.90
7502;DHT22;3792;47.740;7.606;2023-05-07T08:15:44;19.70;99.90
7502;DHT22;3792;47.740;7.606;2023-05-07T08:18:11;19.90;99.90
7502;DHT22;3792;47.740;7.606;2023-05-07T08:20:38;20.10;99.90
7502;DHT22;3792;47.740;7.606;2023-05-07T08:23:05;20.40;99.90
7502;DHT22;3792;47.740;7.606;2023-05-07T08:25:33;20.60;99.90
7502;DHT22;3792;47.740;7.606;2023-05-07T08:28:01;20.50;99.90
7502;DHT22;3792;47.740;7.606;2023-05-07T08:30:29;20.70;99.90
7502;DHT22;3792;47.740;7.606;2023-05-07T08:32:56;20.70;99.90
7502;DHT22;3792;47.740;7.606;2023-05-07T08:35:23;20.60;99.90
7502;DHT22;3792;47.740;7.606;2023-05-07T08:37:51;20.60;99.90
7502;DHT22;3792;47.740;7.606;2023-05-07T08:40:18;20.60;99.90
7502;DHT22;3792;47.740;7.606;2023-05-07T08:42:48;20.60;99.90
7502;DHT22;3792;47.740;7.606;2023-05-07T08:45:18;20.50;99.90
7502;DHT22;3792;47.740;7.606;2023-05-07T08:47:47;20.20;99.90
7502;DHT22;3792;47.740;7.606;2023-05-07T08:50:19;20.10;99.90
7502;DHT22;3792;47.740;7.606;2023-05-07T08:52:47;19.60;99.90
7502;DHT22;3792;47.740;7.606;2023-05-07T08:55:14;19.50;99.90
7502;DHT22;3792;47.740;7.606;2023-05-07T08:57:41;19.30;99.90
7502;DHT22;3792;47.740;7.606;2023-05-07T09:00:10;19.10;99.90
7502;DHT22;3792;47.740;7.606;2023-05-07T09:02:38;19.00;99.90
7502;DHT22;3792;47.740;7.606;2023-05-07T09:05:06;18.90;99.90
7502;DHT22;3792;47.740;7.606;2023-05-07T09:07:34;18.90;99.90
7502;DHT22;3792;47.740;7.606;2023-05-07T09:10:02;18.90;99.90
7502;DHT22;3792;47.740;7.606;2023-05-07T09:12:29;19.00;99.90
7502;DHT22;3792;47.740;7.606;2023-05-07T09:14:57;19.10;99.90
7502;DHT22;3792;47.740;7.606;2023-05-07T09:17:24;19.10;99.90
7502;DHT22;3792;47.740;7.606;2023-05-07T09:19:53;19.10;99.90
7502;DHT22;3792;47.740;7.606;2023-05-07T09:22:20;19.20;99.90
7502;DHT22;3792;47.740;7.606;2023-05-07T09:24:48;19.20;99.90
7502;DHT22;3792;47.740;7.606;2023-05-07T09:27:15;19.20;99.90
7502;DHT22;3792;47.740;7.606;2023-05-07T09:29:43;19.20;99.90
7502;DHT22;3792;47.740;7.606;2023-05-07T09:32:11;19.30;99.90
7502;DHT22;3792;47.740;7.606;2023-05-07T09:34:42;19.40;99.90
7502;DHT22;3792;47.740;7.606;2023-05-07T09:37:12;19.50;99.90
7502;DHT22;3792;47.740;7.606;2023-05-07T09:39:40;19.70;99.90
7502;DHT22;3792;47.740;7.606;2023-05-07T09:42:08;19.80;99.90
7502;DHT22;3792;47.740;7.606;2023-05-07T09:44:35;20.00;99.90
7502;DHT22;3792;47.740;7.606;2023-05-07T09:47:05;20.10;99.90
7502;DHT22;3792;47.740;7.606;2023-05-07T09:49:34;20.20;99.90
7502;DHT22;3792;47.740;7.606;2023-05-07T09:52:02;20.40;99.90
7502;DHT22;3792;47.740;7.606;2023-05-07T09:54:33;20.40;99.90
7502;DHT22;3792;47.740;7.606;2023-05-07T09:57:02;20.40;99.90
7502;DHT22;3792;47.740;7.606;2023-05-07T09:59:30;20.60;99.90
7502;DHT22;3792;47.740;7.606;2023-05-07T10:01:59;20.60;99.90
7502;DHT22;3792;47.740;7.606;2023-05-07T10:04:27;20.60;99.90
7502;DHT22;3792;47.740;7.606;2023-05-07T10:06:54;20.40;99.90
7502;DHT22;3792;47.740;7.606;2023-05-07T10:09:23;20.40;99.90
7502;DHT22;3792;47.740;7.606;2023-05-07T10:11:52;20.40;99.90
7502;DHT22;3792;47.740;7.606;2023-05-07T10:14:21;20.40;99.90
7502;DHT22;3792;47.740;7.606;2023-05-07T10:16:48;20.40;99.90
7502;DHT22;3792;47.740;7.606;2023-05-07T10:19:16;20.60;99.90
7502;DHT22;3792;47.740;7.606;2023-05-07T10:21:48;20.70;99.90
7502;DHT22;3792;47.740;7.606;2023-05-07T10:24:21;20.70;99.90
7502;DHT22;3792;47.740;7.606;2023-05-07T10:26:53;20.70;99.90
7502;DHT22;3792;47.740;7.606;2023-05-07T10:29:29;20.70;99.90
7502;DHT22;3792;47.740;7.606;2023-05-07T10:31:59;20.70;99.90
7502;DHT22;3792;47.740;7.606;2023-05-07T10:34:36;20.90;99.90
7502;DHT22;3792;47.740;7.606;2023-05-07T10:37:05;20.90;99.90
7502;DHT22;3792;47.740;7.606;2023-05-07T10:39:33;21.00;99.90
7502;DHT22;3792;47.740;7.606;2023-05-07T10:42:12;21.20;99.90
7502;DHT22;3792;47.740;7.606;2023-05-07T10:44:39;21.30;99.90
7502;DHT22;3792;47.740;7.606;2023-05-07T10:47:09;21.20;99.90
7502;DHT22;3792;47.740;7.606;2023-05-07T10:49:38;20.70;99.90
7502;DHT22;3792;47.740;7.606;2023-05-07T10:52:24;20.80;99.90
7502;DHT22;3792;47.740;7.606;2023-05-07T10:55:20;20.80;99.90
7502;DHT22;3792;47.740;7.606;2023-05-07T10:57:50;21.00;99.90
7502;DHT22;3792;47.740;7.606;2023-05-07T11:00:41;20.80;99.90
7502;DHT22;3792;47.740;7.606;2023-05-07T11:03:09;20.90;99.90
7502;DHT22;3792;47.740;7.606;2023-05-07T11:05:37;21.00;99.90
7502;DHT22;3792;47.740;7.606;2023-05-07T11:08:06;21.10;99.90
7502;DHT22;3792;47.740;7.606;2023-05-07T11:10:51;20.90;99.90
7502;DHT22;3792;47.740;7.606;2023-05-07T11:13:42;20.90;99.90
7502;DHT22;3792;47.740;7.606;2023-05-07T11:16:17;20.80;99.90
7502;DHT22;3792;47.740;7.606;2023-05-07T11:18:48;20.70;99.90
7502;DHT22;3792;47.740;7.606;2023-05-07T11:21:34;20.70;99.90
7502;DHT22;3792;47.740;7.606;2023-05-07T11:24:02;20.60;99.90
7502;DHT22;3792;47.740;7.606;2023-05-07T11:26:42;20.60;99.90
7502;DHT22;3792;47.740;7.606;2023-05-07T11:29:12;20.80;99.90
7502;DHT22;3792;47.740;7.606;2023-05-07T11:31:40;21.00;99.90
7502;DHT22;3792;47.740;7.606;2023-05-07T11:34:08;21.20;99.90
7502;DHT22;3792;47.740;7.606;2023-05-07T11:36:37;21.30;99.90
7502;DHT22;3792;47.740;7.606;2023-05-07T11:39:26;21.20;99.90
7502;DHT22;3792;47.740;7.606;2023-05-07T11:41:54;21.20;99.90
7502;DHT22;3792;47.740;7.606;2023-05-07T11:44:22;21.00;99.90
7502;DHT22;3792;47.740;7.606;2023-05-07T11:46:49;21.00;99.90
7502;DHT22;3792;47.740;7.606;2023-05-07T11:49:17;20.80;99.90
7502;DHT22;3792;47.740;7.606;2023-05-07T11:51:45;20.60;99.90
7502;DHT22;3792;47.740;7.606;2023-05-07T11:54:15;20.60;99.90
7502;DHT22;3792;47.740;7.606;2023-05-07T11:56:44;20.70;99.90
7502;DHT22;3792;47.740;7.606;2023-05-07T11:59:12;20.90;99.90
7502;DHT22;3792;47.740;7.606;2023-05-07T12:01:40;20.80;99.90
7502;DHT22;3792;47.740;7.606;2023-05-07T12:04:07;20.70;99.90
7502;DHT22;3792;47.740;7.606;2023-05-07T12:06:36;20.60;99.90
7502;DHT22;3792;47.740;7.606;2023-05-07T12:09:04;20.40;99.90
7502;DHT22;3792;47.740;7.606;2023-05-07T12:11:33;20.30;99.90
7502;DHT22;3792;47.740;7.606;2023-05-07T12:14:00;20.10;99.90
7502;DHT22;3792;47.740;7.606;2023-05-07T12:16:28;20.00;99.90
7502;DHT22;3792;47.740;7.606;2023-05-07T12:18:57;19.90;99.90
7502;DHT22;3792;47.740;7.606;2023-05-07T12:21:24;19.90;99.90
7502;DHT22;3792;47.740;7.606;2023-05-07T12:23:51;19.80;99.90
7502;DHT22;3792;47.740;7.606;2023-05-07T12:26:19;19.80;99.90
7502;DHT22;3792;47.740;7.606;2023-05-07T12:28:47;19.70;99.90
7502;DHT22;3792;47.740;7.606;2023-05-07T12:31:14;19.70;99.90
7502;DHT22;3792;47.740;7.606;2023-05-07T12:33:42;19.60;99.90
7502;DHT22;3792;47.740;7.606;2023-05-07T12:36:12;19.50;99.90
7502;DHT22;3792;47.740;7.606;2023-05-07T12:38:40;19.60;99.90
7502;DHT22;3792;47.740;7.606;2023-05-07T12:41:08;19.50;99.90
7502;DHT22;3792;47.740;7.606;2023-05-07T12:43:36;19.60;99.90
7502;DHT22;3792;47.740;7.606;2023-05-07T12:46:05;19.70;99.90
7502;DHT22;3792;47.740;7.606;2023-05-07T12:48:32;19.70;99.90
7502;DHT22;3792;47.740;7.606;2023-05-07T12:51:00;19.70;99.90
7502;DHT22;3792;47.740;7.606;2023-05-07T12:53:30;19.70;99.90
7502;DHT22;3792;47.740;7.606;2023-05-07T12:55:58;19.80;99.90
7502;DHT22;3792;47.740;7.606;2023-05-07T12:58:27;19.90;99.90
7502;DHT22;3792;47.740;7.606;2023-05-07T13:00:56;19.80;99.90
7502;DHT22;3792;47.740;7.606;2023-05-07T13:03:28;19.70;99.90
7502;DHT22;3792;47.740;7.606;2023-05-07T13:05:56;19.70;99.90
7502;DHT22;3792;47.740;7.606;2023-05-07T13:08:30;19.60;99.90
7502;DHT22;3792;47.740;7.606;2023-05-07T13:10:58;19.60;99.90
7502;DHT22;3792;47.740;7.606;2023-05-07T13:13:25;19.50;99.90
7502;DHT22;3792;47.740;7.606;2023-05-07T13:15:52;19.40;99.90
7502;DHT22;3792;47.740;7.606;2023-05-07T13:18:19;19.50;99.90
7502;DHT22;3792;47.740;7.606;2023-05-07T13:20:46;19.60;99.90
7502;DHT22;3792;47.740;7.606;2023-05-07T13:23:13;19.90;99.90
7502;DHT22;3792;47.740;7.606;2023-05-07T13:25:42;20.20;99.90
7502;DHT22;3792;47.740;7.606;2023-05-07T13:28:09;20.50;99.90
7502;DHT22;3792;47.740;7.606;2023-05-07T13:30:36;20.80;99.90
7502;DHT22;3792;47.740;7.606;2023-05-07T13:33:03;21.20;99.90
7502;DHT22;3792;47.740;7.606;2023-05-07T13:35:31;21.70;99.90
7502;DHT22;3792;47.740;7.606;2023-05-07T13:37:58;22.20;99.90
7502;DHT22;3792;47.740;7.606;2023-05-07T13:40:25;22.70;99.90
7502;DHT22;3792;47.740;7.606;2023-05-07T13:42:53;23.10;99.90
7502;DHT22;3792;47.740;7.606;2023-05-07T13:45:20;23.40;99.90
7502;DHT22;3792;47.740;7.606;2023-05-07T13:47:51;23.60;99.90
7502;DHT22;3792;47.740;7.606;2023-05-07T13:50:18;23.70;99.90
7502;DHT22;3792;47.740;7.606;2023-05-07T13:52:45;23.30;99.90
7502;DHT22;3792;47.740;7.606;2023-05-07T13:55:16;23.00;99.90
7502;DHT22;3792;47.740;7.606;2023-05-07T13:57:43;22.90;99.90
7502;DHT22;3792;47.740;7.606;2023-05-07T14:00:12;22.90;99.90
7502;DHT22;3792;47.740;7.606;2023-05-07T14:02:40;22.80;99.90
7502;DHT22;3792;47.740;7.606;2023-05-07T14:05:07;22.60;99.90
7502;DHT22;3792;47.740;7.606;2023-05-07T14:07:35;22.50;99.90
7502;DHT22;3792;47.740;7.606;2023-05-07T14:10:03;22.10;99.90
7502;DHT22;3792;47.740;7.606;2023-05-07T14:12:31;21.90;99.90
7502;DHT22;3792;47.740;7.606;2023-05-07T14:14:58;21.80;99.90
7502;DHT22;3792;47.740;7.606;2023-05-07T14:17:26;21.80;99.90
7502;DHT22;3792;47.740;7.606;2023-05-07T14:19:54;21.70;99.90
7502;DHT22;3792;47.740;7.606;2023-05-07T14:22:21;21.50;99.90
7502;DHT22;3792;47.740;7.606;2023-05-07T14:24:49;21.30;99.90
7502;DHT22;3792;47.740;7.606;2023-05-07T14:27:16;21.10;99.90
7502;DHT22;3792;47.740;7.606;2023-05-07T14:29:43;21.00;99.90
7502;DHT22;3792;47.740;7.606;2023-05-07T14:32:11;21.00;99.90
7502;DHT22;3792;47.740;7.606;2023-05-07T14:34:39;20.90;99.90
7502;DHT22;3792;47.740;7.606;2023-05-07T14:37:06;20.80;99.90
7502;DHT22;3792;47.740;7.606;2023-05-07T14:39:33;20.80;99.90
7502;DHT22;3792;47.740;7.606;2023-05-07T14:42:00;20.60;99.90
7502;DHT22;3792;47.740;7.606;2023-05-07T14:44:27;20.60;99.90
7502;DHT22;3792;47.740;7.606;2023-05-07T14:46:55;20.40;99.90
7502;DHT22;3792;47.740;7.606;2023-05-07T14:49:22;20.30;99.90
7502;DHT22;3792;47.740;7.606;2023-05-07T14:51:50;20.30;99.90
7502;DHT22;3792;47.740;7.606;2023-05-07T14:54:17;20.30;99.90
7502;DHT22;3792;47.740;7.606;2023-05-07T14:56:45;20.20;99.90
7502;DHT22;3792;47.740;7.606;2023-05-07T14:59:12;20.20;99.90
7502;DHT22;3792;47.740;7.606;2023-05-07T15:01:39;20.10;99.90
7502;DHT22;3792;47.740;7.606;2023-05-07T15:04:11;20.00;99.90
7502;DHT22;3792;47.740;7.606;2023-05-07T15:06:38;20.00;99.90
7502;DHT22;3792;47.740;7.606;2023-05-07T15:09:06;20.10;99.90
7502;DHT22;3792;47.740;7.606;2023-05-07T15:11:34;20.10;99.90
7502;DHT22;3792;47.740;7.606;2023-05-07T15:14:01;20.20;99.90
7502;DHT22;3792;47.740;7.606;2023-05-07T15:16:28;20.20;99.90
7502;DHT22;3792;47.740;7.606;2023-05-07T15:18:55;20.20;99.90
7502;DHT22;3792;47.740;7.606;2023-05-07T15:21:22;20.20;99.90
7502;DHT22;3792;47.740;7.606;2023-05-07T15:23:49;20.20;99.90
7502;DHT22;3792;47.740;7.606;2023-05-07T15:26:18;20.00;99.90
7502;DHT22;3792;47.740;7.606;2023-05-07T15:28:45;19.80;99.90
7502;DHT22;3792;47.740;7.606;2023-05-07T15:31:12;19.70;99.90
7502;DHT22;3792;47.740;7.606;2023-05-07T15:33:40;19.60;99.90
7502;DHT22;3792;47.740;7.606;2023-05-07T15:36:07;19.60;99.90
7502;DHT22;3792;47.740;7.606;2023-05-07T15:38:34;19.60;99.90
7502;DHT22;3792;47.740;7.606;2023-05-07T15:41:01;19.60;99.90
7502;DHT22;3792;47.740;7.606;2023-05-07T15:43:30;19.60;99.90
7502;DHT22;3792;47.740;7.606;2023-05-07T15:45:57;19.60;99.90
7502;DHT22;3792;47.740;7.606;2023-05-07T15:48:25;19.50;99.90
7502;DHT22;3792;47.740;7.606;2023-05-07T15:50:52;19.50;99.90
7502;DHT22;3792;47.740;7.606;2023-05-07T15:53:19;19.40;99.90
7502;DHT22;3792;47.740;7.606;2023-05-07T15:55:46;19.40;99.90
7502;DHT22;3792;47.740;7.606;2023-05-07T15:58:14;19.50;99.90
7502;DHT22;3792;47.740;7.606;2023-05-07T16:00:46;19.60;99.90
7502;DHT22;3792;47.740;7.606;2023-05-07T16:03:13;19.80;99.90
7502;DHT22;3792;47.740;7.606;2023-05-07T16:05:40;19.90;99.90
7502;DHT22;3792;47.740;7.606;2023-05-07T16:08:07;19.90;99.90
7502;DHT22;3792;47.740;7.606;2023-05-07T16:10:34;19.90;99.90
7502;DHT22;3792;47.740;7.606;2023-05-07T16:13:01;19.80;99.90
7502;DHT22;3792;47.740;7.606;2023-05-07T16:15:29;19.70;99.90
7502;DHT22;3792;47.740;7.606;2023-05-07T16:17:57;19.70;99.90
7502;DHT22;3792;47.740;7.606;2023-05-07T16:20:26;19.70;99.90
7502;DHT22;3792;47.740;7.606;2023-05-07T16:22:55;19.70;99.90
7502;DHT22;3792;47.740;7.606;2023-05-07T16:25:23;19.70;99.90
7502;DHT22;3792;47.740;7.606;2023-05-07T16:27:52;19.70;99.90
7502;DHT22;3792;47.740;7.606;2023-05-07T16:30:19;19.60;99.90
7502;DHT22;3792;47.740;7.606;2023-05-07T16:32:46;19.40;99.90
7502;DHT22;3792;47.740;7.606;2023-05-07T16:35:15;19.30;99.90
7502;DHT22;3792;47.740;7.606;2023-05-07T16:37:42;19.20;99.90
7502;DHT22;3792;47.740;7.606;2023-05-07T16:40:10;19.10;99.90
7502;DHT22;3792;47.740;7.606;2023-05-07T16:42:37;19.00;99.90
7502;DHT22;3792;47.740;7.606;2023-05-07T16:45:05;18.90;99.90
7502;DHT22;3792;47.740;7.606;2023-05-07T16:47:32;18.80;99.90
7502;DHT22;3792;47.740;7.606;2023-05-07T16:49:59;18.70;99.90
7502;DHT22;3792;47.740;7.606;2023-05-07T16:52:31;18.70;99.90
7502;DHT22;3792;47.740;7.606;2023-05-07T16:54:58;18.70;99.90
7502;DHT22;3792;47.740;7.606;2023-05-07T16:57:26;18.70;99.90
7502;DHT22;3792;47.740;7.606;2023-05-07T16:59:55;18.60;99.90
7502;DHT22;3792;47.740;7.606;2023-05-07T17:02:23;18.50;99.90
7502;DHT22;3792;47.740;7.606;2023-05-07T17:04:51;18.40;99.90
7502;DHT22;3792;47.740;7.606;2023-05-07T17:07:18;18.40;99.90
7502;DHT22;3792;47.740;7.606;2023-05-07T17:09:46;18.40;99.90
7502;DHT22;3792;47.740;7.606;2023-05-07T17:12:13;18.40;99.90
7502;DHT22;3792;47.740;7.606;2023-05-07T17:14:41;18.50;99.90
7502;DHT22;3792;47.740;7.606;2023-05-07T17:17:08;18.50;99.90
7502;DHT22;3792;47.740;7.606;2023-05-07T17:19:37;18.50;99.90
7502;DHT22;3792;47.740;7.606;2023-05-07T17:22:05;18.60;99.90
7502;DHT22;3792;47.740;7.606;2023-05-07T17:24:33;18.60;99.90
7502;DHT22;3792;47.740;7.606;2023-05-07T17:27:01;18.60;99.90
7502;DHT22;3792;47.740;7.606;2023-05-07T17:29:29;18.50;99.90
7502;DHT22;3792;47.740;7.606;2023-05-07T17:31:56;18.30;99.90
7502;DHT22;3792;47.740;7.606;2023-05-07T17:34:24;18.30;99.90
7502;DHT22;3792;47.740;7.606;2023-05-07T17:36:51;18.30;99.90
7502;DHT22;3792;47.740;7.606;2023-05-07T17:39:19;18.30;99.90
7502;DHT22;3792;47.740;7.606;2023-05-07T17:41:46;18.30;99.90
7502;DHT22;3792;47.740;7.606;2023-05-07T17:44:14;18.10;99.90
7502;DHT22;3792;47.740;7.606;2023-05-07T17:46:41;18.00;99.90
7502;DHT22;3792;47.740;7.606;2023-05-07T17:49:08;18.00;99.90
7502;DHT22;3792;47.740;7.606;2023-05-07T17:51:35;17.90;99.90
7502;DHT22;3792;47.740;7.606;2023-05-07T17:54:03;17.90;99.90
7502;DHT22;3792;47.740;7.606;2023-05-07T17:56:30;17.70;99.90
7502;DHT22;3792;47.740;7.606;2023-05-07T17:58:57;17.60;99.90
7502;DHT22;3792;47.740;7.606;2023-05-07T18:01:25;17.60;99.90
7502;DHT22;3792;47.740;7.606;2023-05-07T18:03:52;17.40;99.90
7502;DHT22;3792;47.740;7.606;2023-05-07T18:06:19;17.30;99.90
7502;DHT22;3792;47.740;7.606;2023-05-07T18:08:48;17.20;99.90
7502;DHT22;3792;47.740;7.606;2023-05-07T18:11:15;17.20;99.90
7502;DHT22;3792;47.740;7.606;2023-05-07T18:13:42;17.10;99.90
7502;DHT22;3792;47.740;7.606;2023-05-07T18:16:09;17.10;99.90
7502;DHT22;3792;47.740;7.606;2023-05-07T18:18:37;17.00;99.90
7502;DHT22;3792;47.740;7.606;2023-05-07T18:21:04;17.00;99.90
7502;DHT22;3792;47.740;7.606;2023-05-07T18:23:31;16.90;99.90
7502;DHT22;3792;47.740;7.606;2023-05-07T18:26:00;16.90;99.90
7502;DHT22;3792;47.740;7.606;2023-05-07T18:28:27;16.90;99.90
7502;DHT22;3792;47.740;7.606;2023-05-07T18:30:54;16.90;99.90
7502;DHT22;3792;47.740;7.606;2023-05-07T18:33:21;16.80;99.90
7502;DHT22;3792;47.740;7.606;2023-05-07T18:35:49;16.90;99.90
7502;DHT22;3792;47.740;7.606;2023-05-07T18:38:16;16.80;99.90
7502;DHT22;3792;47.740;7.606;2023-05-07T18:40:43;16.80;99.90
7502;DHT22;3792;47.740;7.606;2023-05-07T18:43:11;16.70;99.90
7502;DHT22;3792;47.740;7.606;2023-05-07T18:45:38;16.70;99.90
7502;DHT22;3792;47.740;7.606;2023-05-07T18:48:06;16.70;99.90
7502;DHT22;3792;47.740;7.606;2023-05-07T18:50:33;16.70;99.90
7502;DHT22;3792;47.740;7.606;2023-05-07T18:53:02;16.70;99.90
7502;DHT22;3792;47.740;7.606;2023-05-07T18:55:29;16.80;99.90
7502;DHT22;3792;47.740;7.606;2023-05-07T18:57:56;16.80;99.90
7502;DHT22;3792;47.740;7.606;2023-05-07T19:00:24;16.70;99.90
7502;DHT22;3792;47.740;7.606;2023-05-07T19:02:51;16.60;99.90
7502;DHT22;3792;47.740;7.606;2023-05-07T19:05:18;16.60;99.90
7502;DHT22;3792;47.740;7.606;2023-05-07T19:07:45;16.60;99.90
7502;DHT22;3792;47.740;7.606;2023-05-07T19:10:14;16.60;99.90
7502;DHT22;3792;47.740;7.606;2023-05-07T19:12:41;16.60;99.90
7502;DHT22;3792;47.740;7.606;2023-05-07T19:15:09;16.70;99.90
7502;DHT22;3792;47.740;7.606;2023-05-07T19:17:36;16.70;99.90
7502;DHT22;3792;47.740;7.606;2023-05-07T19:20:04;16.80;99.90
7502;DHT22;3792;47.740;7.606;2023-05-07T19:22:32;16.80;99.90
7502;DHT22;3792;47.740;7.606;2023-05-07T19:24:59;16.80;99.90
7502;DHT22;3792;47.740;7.606;2023-05-07T19:27:28;16.90;99.90
7502;DHT22;3792;47.740;7.606;2023-05-07T19:29:55;16.90;99.90
7502;DHT22;3792;47.740;7.606;2023-05-07T19:32:22;16.90;99.90
7502;DHT22;3792;47.740;7.606;2023-05-07T19:34:49;16.80;99.90
7502;DHT22;3792;47.740;7.606;2023-05-07T19:37:16;16.90;99.90
7502;DHT22;3792;47.740;7.606;2023-05-07T19:39:47;16.90;99.90
7502;DHT22;3792;47.740;7.606;2023-05-07T19:42:14;16.90;99.90
7502;DHT22;3792;47.740;7.606;2023-05-07T19:44:43;16.90;99.90
7502;DHT22;3792;47.740;7.606;2023-05-07T19:47:10;16.80;99.90
7502;DHT22;3792;47.740;7.606;2023-05-07T19:49:37;16.80;99.90
7502;DHT22;3792;47.740;7.606;2023-05-07T19:52:05;16.80;99.90
7502;DHT22;3792;47.740;7.606;2023-05-07T19:54:32;16.70;99.90
7502;DHT22;3792;47.740;7.606;2023-05-07T19:56:59;16.70;99.90
7502;DHT22;3792;47.740;7.606;2023-05-07T19:59:26;16.70;99.90
7502;DHT22;3792;47.740;7.606;2023-05-07T20:01:55;16.70;99.90
7502;DHT22;3792;47.740;7.606;2023-05-07T20:04:22;16.70;99.90
7502;DHT22;3792;47.740;7.606;2023-05-07T20:06:53;16.70;99.90
7502;DHT22;3792;47.740;7.606;2023-05-07T20:09:20;16.70;99.90
7502;DHT22;3792;47.740;7.606;2023-05-07T20:11:47;16.60;99.90
7502;DHT22;3792;47.740;7.606;2023-05-07T20:14:19;16.60;99.90
7502;DHT22;3792;47.740;7.606;2023-05-07T20:16:46;16.60;99.90
7502;DHT22;3792;47.740;7.606;2023-05-07T20:19:15;16.60;99.90
7502;DHT22;3792;47.740;7.606;2023-05-07T20:21:43;16.60;99.90
7502;DHT22;3792;47.740;7.606;2023-05-07T20:24:15;16.60;99.90
7502;DHT22;3792;47.740;7.606;2023-05-07T20:26:45;16.60;99.90
7502;DHT22;3792;47.740;7.606;2023-05-07T20:29:12;16.50;99.90
7502;DHT22;3792;47.740;7.606;2023-05-07T20:31:39;16.60;99.90
7502;DHT22;3792;47.740;7.606;2023-05-07T20:34:08;16.60;99.90
7502;DHT22;3792;47.740;7.606;2023-05-07T20:36:37;16.60;99.90
7502;DHT22;3792;47.740;7.606;2023-05-07T20:39:05;16.50;99.90
7502;DHT22;3792;47.740;7.606;2023-05-07T20:41:32;16.50;99.90
7502;DHT22;3792;47.740;7.606;2023-05-07T20:43:59;16.50;99.90
7502;DHT22;3792;47.740;7.606;2023-05-07T20:46:26;16.50;99.90
7502;DHT22;3792;47.740;7.606;2023-05-07T20:48:54;16.50;99.90
7502;DHT22;3792;47.740;7.606;2023-05-07T20:51:21;16.50;99.90
7502;DHT22;3792;47.740;7.606;2023-05-07T20:53:50;16.50;99.90
7502;DHT22;3792;47.740;7.606;2023-05-07T20:56:17;16.60;99.90
7502;DHT22;3792;47.740;7.606;2023-05-07T20:58:44;16.60;99.90
7502;DHT22;3792;47.740;7.606;2023-05-07T21:01:11;16.50;99.90
7502;DHT22;3792;47.740;7.606;2023-05-07T21:03:38;16.50;99.90
7502;DHT22;3792;47.740;7.606;2023-05-07T21:06:05;16.50;99.90
7502;DHT22;3792;47.740;7.606;2023-05-07T21:08:33;16.40;99.90
7502;DHT22;3792;47.740;7.606;2023-05-07T21:11:01;16.40;99.90
7502;DHT22;3792;47.740;7.606;2023-05-07T21:13:28;16.40;99.90
7502;DHT22;3792;47.740;7.606;2023-05-07T21:15:55;16.40;99.90
7502;DHT22;3792;47.740;7.606;2023-05-07T21:18:24;16.30;99.90
7502;DHT22;3792;47.740;7.606;2023-05-07T21:20:51;16.30;99.90
7502;DHT22;3792;47.740;7.606;2023-05-07T21:23:18;16.20;99.90
7502;DHT22;3792;47.740;7.606;2023-05-07T21:25:45;16.30;99.90
7502;DHT22;3792;47.740;7.606;2023-05-07T21:28:14;16.20;99.90
7502;DHT22;3792;47.740;7.606;2023-05-07T21:30:41;16.20;99.90
7502;DHT22;3792;47.740;7.606;2023-05-07T21:33:08;16.10;99.90
7502;DHT22;3792;47.740;7.606;2023-05-07T21:35:35;16.20;99.90
7502;DHT22;3792;47.740;7.606;2023-05-07T21:38:02;16.10;99.90
7502;DHT22;3792;47.740;7.606;2023-05-07T21:40:29;16.10;99.90
7502;DHT22;3792;47.740;7.606;2023-05-07T21:42:57;16.10;99.90
7502;DHT22;3792;47.740;7.606;2023-05-07T21:45:26;16.20;99.90
7502;DHT22;3792;47.740;7.606;2023-05-07T21:47:53;16.30;99.90
7502;DHT22;3792;47.740;7.606;2023-05-07T21:50:21;16.30;99.90
7502;DHT22;3792;47.740;7.606;2023-05-07T21:52:48;16.30;99.90
7502;DHT22;3792;47.740;7.606;2023-05-07T21:55:16;16.30;99.90
7502;DHT22;3792;47.740;7.606;2023-05-07T21:57:44;16.30;99.90
7502;DHT22;3792;47.740;7.606;2023-05-07T22:00:11;16.30;99.90
7502;DHT22;3792;47.740;7.606;2023-05-07T22:02:40;16.20;99.90
7502;DHT22;3792;47.740;7.606;2023-05-07T22:05:08;16.10;99.90
7502;DHT22;3792;47.740;7.606;2023-05-07T22:07:35;16.10;99.90
7502;DHT22;3792;47.740;7.606;2023-05-07T22:10:02;16.20;99.90
7502;DHT22;3792;47.740;7.606;2023-05-07T22:12:29;16.20;99.90
7502;DHT22;3792;47.740;7.606;2023-05-07T22:14:56;16.20;99.90
7502;DHT22;3792;47.740;7.606;2023-05-07T22:17:23;16.20;99.90
7502;DHT22;3792;47.740;7.606;2023-05-07T22:19:52;16.20;99.90
7502;DHT22;3792;47.740;7.606;2023-05-07T22:22:19;16.20;99.90
7502;DHT22;3792;47.740;7.606;2023-05-07T22:24:46;16.10;99.90
7502;DHT22;3792;47.740;7.606;2023-05-07T22:27:13;16.20;99.90
7502;DHT22;3792;47.740;7.606;2023-05-07T22:29:40;16.20;99.90
7502;DHT22;3792;47.740;7.606;2023-05-07T22:32:07;16.20;99.90
7502;DHT22;3792;47.740;7.606;2023-05-07T22:34:34;16.20;99.90
7502;DHT22;3792;47.740;7.606;2023-05-07T22:37:02;16.20;99.90
7502;DHT22;3792;47.740;7.606;2023-05-07T22:39:29;16.20;99.90
7502;DHT22;3792;47.740;7.606;2023-05-07T22:41:59;16.20;99.90
7502;DHT22;3792;47.740;7.606;2023-05-07T22:44:26;16.20;99.90
7502;DHT22;3792;47.740;7.606;2023-05-07T22:46:53;16.20;99.90
7502;DHT22;3792;47.740;7.606;2023-05-07T22:49:20;16.10;99.90
7502;DHT22;3792;47.740;7.606;2023-05-07T22:51:47;16.10;99.90
7502;DHT22;3792;47.740;7.606;2023-05-07T22:54:16;16.10;99.90
7502;DHT22;3792;47.740;7.606;2023-05-07T22:56:43;16.00;99.90
7502;DHT22;3792;47.740;7.606;2023-05-07T22:59:10;16.00;99.90
7502;DHT22;3792;47.740;7.606;2023-05-07T23:01:38;16.00;99.90
7502;DHT22;3792;47.740;7.606;2023-05-07T23:04:05;16.00;99.90
7502;DHT22;3792;47.740;7.606;2023-05-07T23:06:32;16.00;99.90
7502;DHT22;3792;47.740;7.606;2023-05-07T23:08:59;16.00;99.90
7502;DHT22;3792;47.740;7.606;2023-05-07T23:11:27;15.90;99.90
7502;DHT22;3792;47.740;7.606;2023-05-07T23:13:54;15.90;99.90
7502;DHT22;3792;47.740;7.606;2023-05-07T23:16:22;15.90;99.90
7502;DHT22;3792;47.740;7.606;2023-05-07T23:18:49;15.90;99.90
7502;DHT22;3792;47.740;7.606;2023-05-07T23:21:16;15.90;99.90
7502;DHT22;3792;47.740;7.606;2023-05-07T23:23:43;16.00;99.90
7502;DHT22;3792;47.740;7.606;2023-05-07T23:26:12;16.00;99.90
7502;DHT22;3792;47.740;7.606;2023-05-07T23:28:40;16.00;99.90
7502;DHT22;3792;47.740;7.606;2023-05-07T23:31:07;16.00;99.90
7502;DHT22;3792;47.740;7.606;2023-05-07T23:33:34;16.00;99.90
7502;DHT22;3792;47.740;7.606;2023-05-07T23:36:03;16.10;99.90
7502;DHT22;3792;47.740;7.606;2023-05-07T23:38:30;16.00;99.90
7502;DHT22;3792;47.740;7.606;2023-05-07T23:40:57;16.00;99.90
7502;DHT22;3792;47.740;7.606;2023-05-07T23:43:25;16.00;99.90
7502;DHT22;3792;47.740;7.606;2023-05-07T23:45:53;16.00;99.90
7502;DHT22;3792;47.740;7.606;2023-05-07T23:48:20;16.00;99.90
7502;DHT22;3792;47.740;7.606;2023-05-07T23:50:47;16.00;99.90
7502;DHT22;3792;47.740;7.606;2023-05-07T23:53:14;16.00;99.90
7502;DHT22;3792;47.740;7.606;2023-05-07T23:55:41;16.00;99.90
7502;DHT22;3792;47.740;7.606;2023-05-07T23:58:09;16.00;99.90
